Terminal Aerodrome Forecast
Issued by NWS

Home | Current Version | Previous Version | Graphics & Text | Print | Product List | Glossary On
Versions: 1 2 3 4 5 6 7 8 9 10 11 12 13 14 15 16 17
000
FTUS43 KICT 020500
TAFSLN
TAF
KSLN 020520Z 0206/0306 VRB04KT P6SM SCT050
     FM020900 VRB04KT P6SM SCT150
      TEMPO 0210/0213 4SM BR SCT005
     FM021600 10007KT P6SM SCT050
     FM030300 14009KT P6SM VCTS BKN070CB=

USA.gov is the U.S. government's official web portal to all federal, state and local government web resources and services.